sensor_id;sensor_type;location;lat;lon;timestamp;P1;durP1;ratioP1;P2;durP2;ratioP2
25419;SDS011;13354;48.174;11.566;2023-07-16T00:00:45;6.53;;;3.60;;
25419;SDS011;13354;48.174;11.566;2023-07-16T00:03:11;6.38;;;4.25;;
25419;SDS011;13354;48.174;11.566;2023-07-16T00:05:36;6.13;;;3.87;;
25419;SDS011;13354;48.174;11.566;2023-07-16T00:08:03;9.55;;;4.30;;
25419;SDS011;13354;48.174;11.566;2023-07-16T00:10:28;6.88;;;4.00;;
25419;SDS011;13354;48.174;11.566;2023-07-16T00:12:54;8.48;;;4.30;;
25419;SDS011;13354;48.174;11.566;2023-07-16T00:15:19;8.18;;;4.07;;
25419;SDS011;13354;48.174;11.566;2023-07-16T00:17:44;7.07;;;3.90;;
25419;SDS011;13354;48.174;11.566;2023-07-16T00:20:10;6.63;;;4.00;;
25419;SDS011;13354;48.174;11.566;2023-07-16T00:22:36;8.63;;;3.83;;
25419;SDS011;13354;48.174;11.566;2023-07-16T00:25:03;7.68;;;3.55;;
25419;SDS011;13354;48.174;11.566;2023-07-16T00:27:30;7.18;;;3.85;;
25419;SDS011;13354;48.174;11.566;2023-07-16T00:29:55;7.03;;;4.22;;
25419;SDS011;13354;48.174;11.566;2023-07-16T00:32:20;8.33;;;4.03;;
25419;SDS011;13354;48.174;11.566;2023-07-16T00:34:46;6.15;;;4.28;;
25419;SDS011;13354;48.174;11.566;2023-07-16T00:37:11;5.00;;;3.85;;
25419;SDS011;13354;48.174;11.566;2023-07-16T00:39:36;7.72;;;4.00;;
25419;SDS011;13354;48.174;11.566;2023-07-16T00:42:02;4.82;;;3.45;;
25419;SDS011;13354;48.174;11.566;2023-07-16T00:44:27;5.45;;;3.90;;
25419;SDS011;13354;48.174;11.566;2023-07-16T00:46:52;8.67;;;4.00;;
25419;SDS011;13354;48.174;11.566;2023-07-16T00:49:18;8.48;;;4.07;;
25419;SDS011;13354;48.174;11.566;2023-07-16T00:51:43;7.18;;;4.25;;
25419;SDS011;13354;48.174;11.566;2023-07-16T00:54:09;9.98;;;4.75;;
25419;SDS011;13354;48.174;11.566;2023-07-16T00:56:34;7.18;;;4.00;;
25419;SDS011;13354;48.174;11.566;2023-07-16T00:59:02;6.05;;;4.10;;
25419;SDS011;13354;48.174;11.566;2023-07-16T01:01:27;6.30;;;3.95;;
25419;SDS011;13354;48.174;11.566;2023-07-16T01:03:53;7.15;;;4.80;;
25419;SDS011;13354;48.174;11.566;2023-07-16T01:06:25;9.98;;;4.78;;
25419;SDS011;13354;48.174;11.566;2023-07-16T01:09:03;8.40;;;4.22;;
25419;SDS011;13354;48.174;11.566;2023-07-16T01:11:33;7.28;;;4.72;;
25419;SDS011;13354;48.174;11.566;2023-07-16T01:14:00;10.60;;;5.03;;
25419;SDS011;13354;48.174;11.566;2023-07-16T01:16:27;6.75;;;4.93;;
25419;SDS011;13354;48.174;11.566;2023-07-16T01:18:52;8.25;;;4.70;;
25419;SDS011;13354;48.174;11.566;2023-07-16T01:21:21;7.43;;;4.90;;
25419;SDS011;13354;48.174;11.566;2023-07-16T01:26:30;8.30;;;4.50;;
25419;SDS011;13354;48.174;11.566;2023-07-16T01:29:21;5.68;;;4.40;;
25419;SDS011;13354;48.174;11.566;2023-07-16T01:31:51;8.13;;;4.40;;
25419;SDS011;13354;48.174;11.566;2023-07-16T01:34:19;9.57;;;4.75;;
25419;SDS011;13354;48.174;11.566;2023-07-16T01:36:46;9.00;;;5.25;;
25419;SDS011;13354;48.174;11.566;2023-07-16T01:39:12;6.20;;;4.40;;
25419;SDS011;13354;48.174;11.566;2023-07-16T01:41:39;7.72;;;4.53;;
25419;SDS011;13354;48.174;11.566;2023-07-16T01:44:04;7.00;;;4.80;;
25419;SDS011;13354;48.174;11.566;2023-07-16T01:46:29;8.88;;;5.30;;
25419;SDS011;13354;48.174;11.566;2023-07-16T01:48:55;9.82;;;5.05;;
25419;SDS011;13354;48.174;11.566;2023-07-16T01:51:20;8.38;;;5.20;;
25419;SDS011;13354;48.174;11.566;2023-07-16T01:53:45;9.27;;;4.68;;
25419;SDS011;13354;48.174;11.566;2023-07-16T01:56:12;8.50;;;4.63;;
25419;SDS011;13354;48.174;11.566;2023-07-16T01:58:37;9.20;;;5.38;;
25419;SDS011;13354;48.174;11.566;2023-07-16T02:01:03;8.38;;;5.10;;
25419;SDS011;13354;48.174;11.566;2023-07-16T02:03:28;9.93;;;5.13;;
25419;SDS011;13354;48.174;11.566;2023-07-16T02:05:53;9.93;;;4.82;;
25419;SDS011;13354;48.174;11.566;2023-07-16T02:08:18;9.48;;;5.28;;
25419;SDS011;13354;48.174;11.566;2023-07-16T02:10:44;8.75;;;4.85;;
25419;SDS011;13354;48.174;11.566;2023-07-16T02:13:11;10.50;;;5.20;;
25419;SDS011;13354;48.174;11.566;2023-07-16T02:15:37;8.83;;;5.10;;
25419;SDS011;13354;48.174;11.566;2023-07-16T02:18:03;10.43;;;5.50;;
25419;SDS011;13354;48.174;11.566;2023-07-16T02:20:29;7.88;;;5.07;;
25419;SDS011;13354;48.174;11.566;2023-07-16T02:22:54;9.32;;;5.13;;
25419;SDS011;13354;48.174;11.566;2023-07-16T02:25:19;7.50;;;4.90;;
25419;SDS011;13354;48.174;11.566;2023-07-16T02:27:45;8.07;;;4.82;;
25419;SDS011;13354;48.174;11.566;2023-07-16T02:30:10;6.70;;;4.87;;
25419;SDS011;13354;48.174;11.566;2023-07-16T02:32:35;6.45;;;4.90;;
25419;SDS011;13354;48.174;11.566;2023-07-16T02:35:01;8.50;;;5.90;;
25419;SDS011;13354;48.174;11.566;2023-07-16T02:37:28;8.52;;;5.30;;
25419;SDS011;13354;48.174;11.566;2023-07-16T02:39:53;12.77;;;5.55;;
25419;SDS011;13354;48.174;11.566;2023-07-16T02:42:19;9.55;;;5.20;;
25419;SDS011;13354;48.174;11.566;2023-07-16T02:44:44;8.70;;;4.97;;
25419;SDS011;13354;48.174;11.566;2023-07-16T02:47:10;8.05;;;5.10;;
25419;SDS011;13354;48.174;11.566;2023-07-16T02:49:36;8.10;;;4.70;;
25419;SDS011;13354;48.174;11.566;2023-07-16T02:52:01;9.65;;;4.88;;
25419;SDS011;13354;48.174;11.566;2023-07-16T02:54:27;11.50;;;5.43;;
25419;SDS011;13354;48.174;11.566;2023-07-16T02:56:52;7.80;;;4.85;;
25419;SDS011;13354;48.174;11.566;2023-07-16T02:59:17;7.30;;;4.90;;
25419;SDS011;13354;48.174;11.566;2023-07-16T03:01:42;5.93;;;4.43;;
25419;SDS011;13354;48.174;11.566;2023-07-16T03:04:08;7.10;;;4.82;;
25419;SDS011;13354;48.174;11.566;2023-07-16T03:06:33;7.65;;;4.35;;
25419;SDS011;13354;48.174;11.566;2023-07-16T03:08:59;9.88;;;4.30;;
25419;SDS011;13354;48.174;11.566;2023-07-16T03:11:24;8.10;;;4.70;;
25419;SDS011;13354;48.174;11.566;2023-07-16T03:13:49;9.02;;;4.07;;
25419;SDS011;13354;48.174;11.566;2023-07-16T03:16:15;4.65;;;3.30;;
25419;SDS011;13354;48.174;11.566;2023-07-16T03:18:40;7.00;;;3.83;;
25419;SDS011;13354;48.174;11.566;2023-07-16T03:21:05;7.00;;;3.50;;
25419;SDS011;13354;48.174;11.566;2023-07-16T03:23:31;7.82;;;3.53;;
25419;SDS011;13354;48.174;11.566;2023-07-16T03:25:56;4.85;;;3.30;;
25419;SDS011;13354;48.174;11.566;2023-07-16T03:28:21;4.40;;;3.15;;
25419;SDS011;13354;48.174;11.566;2023-07-16T03:30:47;5.90;;;3.40;;
25419;SDS011;13354;48.174;11.566;2023-07-16T03:33:13;7.57;;;3.78;;
25419;SDS011;13354;48.174;11.566;2023-07-16T03:35:39;5.65;;;3.63;;
25419;SDS011;13354;48.174;11.566;2023-07-16T03:38:04;7.18;;;3.58;;
25419;SDS011;13354;48.174;11.566;2023-07-16T03:40:29;11.00;;;3.85;;
25419;SDS011;13354;48.174;11.566;2023-07-16T03:42:55;6.72;;;3.90;;
25419;SDS011;13354;48.174;11.566;2023-07-16T03:45:20;5.78;;;4.07;;
25419;SDS011;13354;48.174;11.566;2023-07-16T03:47:46;5.85;;;4.00;;
25419;SDS011;13354;48.174;11.566;2023-07-16T03:50:11;6.95;;;4.10;;
25419;SDS011;13354;48.174;11.566;2023-07-16T03:52:36;6.15;;;4.22;;
25419;SDS011;13354;48.174;11.566;2023-07-16T03:55:02;5.45;;;4.30;;
25419;SDS011;13354;48.174;11.566;2023-07-16T03:57:27;6.43;;;4.20;;
25419;SDS011;13354;48.174;11.566;2023-07-16T03:59:54;6.32;;;3.60;;
25419;SDS011;13354;48.174;11.566;2023-07-16T04:02:19;10.00;;;3.42;;
25419;SDS011;13354;48.174;11.566;2023-07-16T04:04:44;6.07;;;3.40;;
25419;SDS011;13354;48.174;11.566;2023-07-16T04:07:09;5.97;;;2.50;;
25419;SDS011;13354;48.174;11.566;2023-07-16T04:09:38;4.30;;;2.60;;
25419;SDS011;13354;48.174;11.566;2023-07-16T04:12:04;2.60;;;2.00;;
25419;SDS011;13354;48.174;11.566;2023-07-16T04:14:30;2.75;;;2.08;;
25419;SDS011;13354;48.174;11.566;2023-07-16T04:16:56;2.80;;;1.80;;
25419;SDS011;13354;48.174;11.566;2023-07-16T04:19:21;3.63;;;1.60;;
25419;SDS011;13354;48.174;11.566;2023-07-16T04:21:46;1.85;;;1.60;;
25419;SDS011;13354;48.174;11.566;2023-07-16T04:24:12;3.67;;;2.40;;
25419;SDS011;13354;48.174;11.566;2023-07-16T04:26:37;5.37;;;2.43;;
25419;SDS011;13354;48.174;11.566;2023-07-16T04:29:02;5.22;;;3.22;;
25419;SDS011;13354;48.174;11.566;2023-07-16T04:31:27;10.73;;;3.13;;
25419;SDS011;13354;48.174;11.566;2023-07-16T04:33:53;6.20;;;3.05;;
25419;SDS011;13354;48.174;11.566;2023-07-16T04:36:18;8.43;;;3.23;;
25419;SDS011;13354;48.174;11.566;2023-07-16T04:38:43;5.90;;;3.30;;
25419;SDS011;13354;48.174;11.566;2023-07-16T04:41:09;6.47;;;3.90;;
25419;SDS011;13354;48.174;11.566;2023-07-16T04:43:34;5.70;;;4.40;;
25419;SDS011;13354;48.174;11.566;2023-07-16T04:45:59;7.30;;;3.78;;
25419;SDS011;13354;48.174;11.566;2023-07-16T04:48:25;6.63;;;3.63;;
25419;SDS011;13354;48.174;11.566;2023-07-16T04:50:51;6.78;;;3.58;;
25419;SDS011;13354;48.174;11.566;2023-07-16T04:53:17;4.95;;;3.25;;
25419;SDS011;13354;48.174;11.566;2023-07-16T04:55:43;5.13;;;3.05;;
25419;SDS011;13354;48.174;11.566;2023-07-16T04:58:10;4.90;;;3.20;;
25419;SDS011;13354;48.174;11.566;2023-07-16T05:00:36;4.15;;;2.85;;
25419;SDS011;13354;48.174;11.566;2023-07-16T05:03:02;3.85;;;3.00;;
25419;SDS011;13354;48.174;11.566;2023-07-16T05:05:27;4.82;;;3.13;;
25419;SDS011;13354;48.174;11.566;2023-07-16T05:07:52;3.00;;;2.75;;
25419;SDS011;13354;48.174;11.566;2023-07-16T05:10:17;4.17;;;2.97;;
25419;SDS011;13354;48.174;11.566;2023-07-16T05:12:43;5.10;;;2.95;;
25419;SDS011;13354;48.174;11.566;2023-07-16T05:15:08;4.50;;;2.60;;
25419;SDS011;13354;48.174;11.566;2023-07-16T05:17:34;3.50;;;2.70;;
25419;SDS011;13354;48.174;11.566;2023-07-16T05:19:59;3.38;;;2.75;;
25419;SDS011;13354;48.174;11.566;2023-07-16T05:22:25;3.85;;;2.20;;
25419;SDS011;13354;48.174;11.566;2023-07-16T05:24:50;5.75;;;2.70;;
25419;SDS011;13354;48.174;11.566;2023-07-16T05:27:15;3.38;;;2.60;;
25419;SDS011;13354;48.174;11.566;2023-07-16T05:29:41;2.60;;;2.30;;
25419;SDS011;13354;48.174;11.566;2023-07-16T05:32:06;4.68;;;2.50;;
25419;SDS011;13354;48.174;11.566;2023-07-16T05:34:32;3.33;;;2.50;;
25419;SDS011;13354;48.174;11.566;2023-07-16T05:36:58;3.45;;;2.30;;
25419;SDS011;13354;48.174;11.566;2023-07-16T05:39:24;3.00;;;2.33;;
25419;SDS011;13354;48.174;11.566;2023-07-16T05:41:49;3.70;;;2.40;;
25419;SDS011;13354;48.174;11.566;2023-07-16T05:44:14;4.93;;;2.80;;
25419;SDS011;13354;48.174;11.566;2023-07-16T05:46:40;4.10;;;2.40;;
25419;SDS011;13354;48.174;11.566;2023-07-16T05:49:05;2.10;;;1.90;;
25419;SDS011;13354;48.174;11.566;2023-07-16T05:51:30;4.13;;;2.22;;
25419;SDS011;13354;48.174;11.566;2023-07-16T05:53:55;2.63;;;2.08;;
25419;SDS011;13354;48.174;11.566;2023-07-16T05:56:21;2.83;;;2.17;;
25419;SDS011;13354;48.174;11.566;2023-07-16T05:58:46;3.03;;;2.40;;
25419;SDS011;13354;48.174;11.566;2023-07-16T06:01:11;3.58;;;2.70;;
25419;SDS011;13354;48.174;11.566;2023-07-16T06:03:37;3.95;;;2.22;;
25419;SDS011;13354;48.174;11.566;2023-07-16T06:06:02;2.67;;;2.47;;
25419;SDS011;13354;48.174;11.566;2023-07-16T06:08:27;4.32;;;2.65;;
25419;SDS011;13354;48.174;11.566;2023-07-16T06:10:53;5.00;;;3.15;;
25419;SDS011;13354;48.174;11.566;2023-07-16T06:13:18;5.10;;;2.73;;
25419;SDS011;13354;48.174;11.566;2023-07-16T06:15:43;4.75;;;3.13;;
25419;SDS011;13354;48.174;11.566;2023-07-16T06:18:09;3.38;;;2.55;;
25419;SDS011;13354;48.174;11.566;2023-07-16T06:20:34;2.22;;;2.03;;
25419;SDS011;13354;48.174;11.566;2023-07-16T06:23:00;3.55;;;2.22;;
25419;SDS011;13354;48.174;11.566;2023-07-16T06:25:25;3.10;;;2.25;;
25419;SDS011;13354;48.174;11.566;2023-07-16T06:27:50;2.50;;;2.30;;
25419;SDS011;13354;48.174;11.566;2023-07-16T06:30:16;2.50;;;2.28;;
25419;SDS011;13354;48.174;11.566;2023-07-16T06:32:41;3.05;;;2.60;;
25419;SDS011;13354;48.174;11.566;2023-07-16T06:35:07;4.15;;;2.50;;
25419;SDS011;13354;48.174;11.566;2023-07-16T06:37:33;5.15;;;2.60;;
25419;SDS011;13354;48.174;11.566;2023-07-16T06:39:58;4.13;;;3.20;;
25419;SDS011;13354;48.174;11.566;2023-07-16T06:42:23;7.00;;;4.43;;
25419;SDS011;13354;48.174;11.566;2023-07-16T06:44:48;4.82;;;2.58;;
25419;SDS011;13354;48.174;11.566;2023-07-16T06:47:14;4.15;;;3.08;;
25419;SDS011;13354;48.174;11.566;2023-07-16T06:49:40;3.85;;;2.72;;
25419;SDS011;13354;48.174;11.566;2023-07-16T06:52:05;4.47;;;3.13;;
25419;SDS011;13354;48.174;11.566;2023-07-16T06:54:31;3.40;;;2.70;;
25419;SDS011;13354;48.174;11.566;2023-07-16T06:56:56;4.50;;;2.90;;
25419;SDS011;13354;48.174;11.566;2023-07-16T06:59:21;4.15;;;2.40;;
25419;SDS011;13354;48.174;11.566;2023-07-16T07:01:47;3.95;;;2.90;;
25419;SDS011;13354;48.174;11.566;2023-07-16T07:04:12;5.00;;;2.70;;
25419;SDS011;13354;48.174;11.566;2023-07-16T07:06:37;3.03;;;2.40;;
25419;SDS011;13354;48.174;11.566;2023-07-16T07:09:03;3.15;;;2.10;;
25419;SDS011;13354;48.174;11.566;2023-07-16T07:11:28;2.63;;;2.03;;
25419;SDS011;13354;48.174;11.566;2023-07-16T07:13:54;4.20;;;2.30;;
25419;SDS011;13354;48.174;11.566;2023-07-16T07:16:20;4.57;;;2.10;;
25419;SDS011;13354;48.174;11.566;2023-07-16T07:18:45;2.95;;;2.10;;
25419;SDS011;13354;48.174;11.566;2023-07-16T07:21:10;2.38;;;1.90;;
25419;SDS011;13354;48.174;11.566;2023-07-16T07:23:36;2.10;;;1.70;;
25419;SDS011;13354;48.174;11.566;2023-07-16T07:26:01;1.77;;;1.67;;
25419;SDS011;13354;48.174;11.566;2023-07-16T07:28:27;5.57;;;1.90;;
25419;SDS011;13354;48.174;11.566;2023-07-16T07:30:53;3.58;;;2.90;;
25419;SDS011;13354;48.174;11.566;2023-07-16T07:33:18;1.90;;;1.70;;
25419;SDS011;13354;48.174;11.566;2023-07-16T07:35:43;2.90;;;1.97;;
25419;SDS011;13354;48.174;11.566;2023-07-16T07:38:09;2.40;;;2.10;;
25419;SDS011;13354;48.174;11.566;2023-07-16T07:40:34;2.38;;;1.75;;
25419;SDS011;13354;48.174;11.566;2023-07-16T07:42:59;4.50;;;1.50;;
25419;SDS011;13354;48.174;11.566;2023-07-16T07:45:25;3.28;;;1.88;;
25419;SDS011;13354;48.174;11.566;2023-07-16T07:47:51;2.67;;;1.77;;
25419;SDS011;13354;48.174;11.566;2023-07-16T07:50:16;2.97;;;1.40;;
25419;SDS011;13354;48.174;11.566;2023-07-16T07:52:42;2.45;;;1.60;;
25419;SDS011;13354;48.174;11.566;2023-07-16T07:55:07;2.65;;;1.52;;
25419;SDS011;13354;48.174;11.566;2023-07-16T07:57:33;1.88;;;1.42;;
25419;SDS011;13354;48.174;11.566;2023-07-16T07:59:58;1.85;;;1.27;;
25419;SDS011;13354;48.174;11.566;2023-07-16T08:02:24;2.58;;;1.55;;
25419;SDS011;13354;48.174;11.566;2023-07-16T08:04:51;1.77;;;1.63;;
25419;SDS011;13354;48.174;11.566;2023-07-16T08:07:16;5.30;;;1.75;;
25419;SDS011;13354;48.174;11.566;2023-07-16T08:09:42;2.70;;;1.50;;
25419;SDS011;13354;48.174;11.566;2023-07-16T08:12:08;2.05;;;1.60;;
25419;SDS011;13354;48.174;11.566;2023-07-16T08:14:33;3.30;;;1.38;;
25419;SDS011;13354;48.174;11.566;2023-07-16T08:16:59;1.80;;;1.40;;
25419;SDS011;13354;48.174;11.566;2023-07-16T08:19:24;2.10;;;1.52;;
25419;SDS011;13354;48.174;11.566;2023-07-16T08:21:49;2.35;;;1.45;;
25419;SDS011;13354;48.174;11.566;2023-07-16T08:24:15;1.83;;;1.70;;
25419;SDS011;13354;48.174;11.566;2023-07-16T08:26:40;3.28;;;1.45;;
25419;SDS011;13354;48.174;11.566;2023-07-16T08:29:05;2.85;;;1.65;;
25419;SDS011;13354;48.174;11.566;2023-07-16T08:31:31;1.93;;;1.40;;
25419;SDS011;13354;48.174;11.566;2023-07-16T08:33:56;1.40;;;1.30;;
25419;SDS011;13354;48.174;11.566;2023-07-16T08:36:21;1.95;;;1.40;;
25419;SDS011;13354;48.174;11.566;2023-07-16T08:38:47;4.75;;;1.58;;
25419;SDS011;13354;48.174;11.566;2023-07-16T08:41:12;2.03;;;1.52;;
25419;SDS011;13354;48.174;11.566;2023-07-16T08:43:38;1.50;;;1.40;;
25419;SDS011;13354;48.174;11.566;2023-07-16T08:46:04;1.50;;;1.40;;
25419;SDS011;13354;48.174;11.566;2023-07-16T08:48:30;1.48;;;1.35;;
25419;SDS011;13354;48.174;11.566;2023-07-16T08:50:57;1.33;;;1.15;;
25419;SDS011;13354;48.174;11.566;2023-07-16T08:53:26;1.75;;;1.30;;
25419;SDS011;13354;48.174;11.566;2023-07-16T08:55:52;1.40;;;1.05;;
25419;SDS011;13354;48.174;11.566;2023-07-16T08:58:17;1.48;;;1.17;;
25419;SDS011;13354;48.174;11.566;2023-07-16T09:00:43;2.05;;;1.20;;
25419;SDS011;13354;48.174;11.566;2023-07-16T09:03:11;3.80;;;1.45;;
25419;SDS011;13354;48.174;11.566;2023-07-16T09:05:38;2.90;;;1.40;;
25419;SDS011;13354;48.174;11.566;2023-07-16T09:08:04;1.38;;;1.27;;
25419;SDS011;13354;48.174;11.566;2023-07-16T09:10:29;1.90;;;1.33;;
25419;SDS011;13354;48.174;11.566;2023-07-16T09:12:57;2.28;;;1.58;;
25419;SDS011;13354;48.174;11.566;2023-07-16T09:15:23;2.50;;;1.40;;
25419;SDS011;13354;48.174;11.566;2023-07-16T09:17:48;1.50;;;1.30;;
25419;SDS011;13354;48.174;11.566;2023-07-16T09:20:15;2.35;;;1.15;;
25419;SDS011;13354;48.174;11.566;2023-07-16T09:22:41;2.67;;;1.40;;
25419;SDS011;13354;48.174;11.566;2023-07-16T09:25:07;2.40;;;1.50;;
25419;SDS011;13354;48.174;11.566;2023-07-16T09:27:33;1.60;;;1.23;;
25419;SDS011;13354;48.174;11.566;2023-07-16T09:29:58;1.85;;;1.40;;
25419;SDS011;13354;48.174;11.566;2023-07-16T09:32:36;4.43;;;1.50;;
25419;SDS011;13354;48.174;11.566;2023-07-16T09:35:14;1.55;;;1.20;;
25419;SDS011;13354;48.174;11.566;2023-07-16T09:37:40;2.00;;;1.20;;
25419;SDS011;13354;48.174;11.566;2023-07-16T09:40:07;2.05;;;1.20;;
25419;SDS011;13354;48.174;11.566;2023-07-16T09:42:40;1.92;;;1.10;;
25419;SDS011;13354;48.174;11.566;2023-07-16T09:45:07;1.60;;;1.08;;
25419;SDS011;13354;48.174;11.566;2023-07-16T09:47:37;2.22;;;1.30;;
25419;SDS011;13354;48.174;11.566;2023-07-16T09:50:03;3.60;;;1.23;;
25419;SDS011;13354;48.174;11.566;2023-07-16T09:52:29;2.58;;;1.40;;
25419;SDS011;13354;48.174;11.566;2023-07-16T09:54:57;2.60;;;1.40;;
25419;SDS011;13354;48.174;11.566;2023-07-16T09:57:26;1.70;;;1.02;;
25419;SDS011;13354;48.174;11.566;2023-07-16T09:59:55;2.03;;;1.20;;
25419;SDS011;13354;48.174;11.566;2023-07-16T10:02:23;3.58;;;1.20;;
25419;SDS011;13354;48.174;11.566;2023-07-16T10:04:49;1.70;;;1.33;;
25419;SDS011;13354;48.174;11.566;2023-07-16T10:07:21;1.70;;;1.30;;
25419;SDS011;13354;48.174;11.566;2023-07-16T10:09:54;1.60;;;1.10;;
25419;SDS011;13354;48.174;11.566;2023-07-16T10:12:22;1.45;;;1.20;;
25419;SDS011;13354;48.174;11.566;2023-07-16T10:17:24;1.30;;;1.20;;
25419;SDS011;13354;48.174;11.566;2023-07-16T10:24:58;1.63;;;1.40;;
25419;SDS011;13354;48.174;11.566;2023-07-16T10:27:31;2.17;;;1.40;;
25419;SDS011;13354;48.174;11.566;2023-07-16T10:29:57;3.15;;;1.25;;
25419;SDS011;13354;48.174;11.566;2023-07-16T10:32:25;2.63;;;1.50;;
25419;SDS011;13354;48.174;11.566;2023-07-16T10:34:53;2.83;;;1.30;;
25419;SDS011;13354;48.174;11.566;2023-07-16T10:37:18;2.20;;;1.30;;
25419;SDS011;13354;48.174;11.566;2023-07-16T10:39:45;1.75;;;1.40;;
25419;SDS011;13354;48.174;11.566;2023-07-16T10:42:18;3.15;;;1.50;;
25419;SDS011;13354;48.174;11.566;2023-07-16T10:44:44;1.63;;;1.40;;
25419;SDS011;13354;48.174;11.566;2023-07-16T10:47:17;2.58;;;1.45;;
25419;SDS011;13354;48.174;11.566;2023-07-16T10:49:45;2.00;;;1.30;;
25419;SDS011;13354;48.174;11.566;2023-07-16T10:52:10;1.90;;;1.40;;
25419;SDS011;13354;48.174;11.566;2023-07-16T10:54:36;1.03;;;0.97;;
25419;SDS011;13354;48.174;11.566;2023-07-16T10:57:01;1.40;;;1.30;;
25419;SDS011;13354;48.174;11.566;2023-07-16T10:59:28;3.83;;;1.50;;
25419;SDS011;13354;48.174;11.566;2023-07-16T11:01:54;1.50;;;1.10;;
25419;SDS011;13354;48.174;11.566;2023-07-16T11:04:19;3.17;;;1.30;;
25419;SDS011;13354;48.174;11.566;2023-07-16T11:06:44;2.20;;;1.90;;
25419;SDS011;13354;48.174;11.566;2023-07-16T11:09:10;1.30;;;1.20;;
25419;SDS011;13354;48.174;11.566;2023-07-16T11:11:36;2.42;;;1.10;;
25419;SDS011;13354;48.174;11.566;2023-07-16T11:14:06;2.25;;;1.30;;
25419;SDS011;13354;48.174;11.566;2023-07-16T11:16:33;1.40;;;1.30;;
25419;SDS011;13354;48.174;11.566;2023-07-16T11:19:00;1.92;;;1.40;;
25419;SDS011;13354;48.174;11.566;2023-07-16T11:21:27;5.88;;;1.52;;
25419;SDS011;13354;48.174;11.566;2023-07-16T11:23:52;2.33;;;1.50;;
25419;SDS011;13354;48.174;11.566;2023-07-16T11:26:18;1.83;;;1.23;;
25419;SDS011;13354;48.174;11.566;2023-07-16T11:28:43;1.33;;;1.23;;
25419;SDS011;13354;48.174;11.566;2023-07-16T11:31:15;2.85;;;1.63;;
25419;SDS011;13354;48.174;11.566;2023-07-16T11:33:43;3.80;;;1.40;;
25419;SDS011;13354;48.174;11.566;2023-07-16T11:36:11;3.38;;;1.50;;
25419;SDS011;13354;48.174;11.566;2023-07-16T11:38:37;3.15;;;1.80;;
25419;SDS011;13354;48.174;11.566;2023-07-16T11:41:03;1.98;;;1.38;;
25419;SDS011;13354;48.174;11.566;2023-07-16T11:43:28;2.00;;;1.42;;
25419;SDS011;13354;48.174;11.566;2023-07-16T11:45:53;1.52;;;1.42;;
25419;SDS011;13354;48.174;11.566;2023-07-16T11:48:19;1.40;;;1.30;;
25419;SDS011;13354;48.174;11.566;2023-07-16T11:50:44;2.22;;;1.48;;
25419;SDS011;13354;48.174;11.566;2023-07-16T11:53:10;1.73;;;1.48;;
25419;SDS011;13354;48.174;11.566;2023-07-16T11:55:36;2.28;;;1.40;;
25419;SDS011;13354;48.174;11.566;2023-07-16T11:58:01;2.70;;;1.67;;
25419;SDS011;13354;48.174;11.566;2023-07-16T12:00:28;3.78;;;1.70;;
25419;SDS011;13354;48.174;11.566;2023-07-16T12:02:53;1.80;;;1.60;;
25419;SDS011;13354;48.174;11.566;2023-07-16T12:05:22;2.08;;;1.67;;
25419;SDS011;13354;48.174;11.566;2023-07-16T12:07:52;5.18;;;2.38;;
25419;SDS011;13354;48.174;11.566;2023-07-16T12:10:18;1.70;;;1.55;;
25419;SDS011;13354;48.174;11.566;2023-07-16T12:12:43;3.33;;;1.98;;
25419;SDS011;13354;48.174;11.566;2023-07-16T12:15:08;1.45;;;1.30;;
25419;SDS011;13354;48.174;11.566;2023-07-16T12:17:34;2.42;;;1.42;;
25419;SDS011;13354;48.174;11.566;2023-07-16T12:20:00;2.45;;;2.22;;
25419;SDS011;13354;48.174;11.566;2023-07-16T12:22:26;3.10;;;1.70;;
25419;SDS011;13354;48.174;11.566;2023-07-16T12:24:52;1.75;;;1.42;;
25419;SDS011;13354;48.174;11.566;2023-07-16T12:27:17;1.23;;;1.10;;
25419;SDS011;13354;48.174;11.566;2023-07-16T12:29:43;4.65;;;1.70;;
25419;SDS011;13354;48.174;11.566;2023-07-16T12:32:09;1.58;;;1.30;;
25419;SDS011;13354;48.174;11.566;2023-07-16T12:34:34;1.63;;;1.20;;
25419;SDS011;13354;48.174;11.566;2023-07-16T12:37:00;2.00;;;1.50;;
25419;SDS011;13354;48.174;11.566;2023-07-16T12:39:25;1.63;;;1.40;;
25419;SDS011;13354;48.174;11.566;2023-07-16T12:41:50;3.22;;;1.70;;
25419;SDS011;13354;48.174;11.566;2023-07-16T12:44:16;3.00;;;1.77;;
25419;SDS011;13354;48.174;11.566;2023-07-16T12:46:41;2.17;;;1.40;;
25419;SDS011;13354;48.174;11.566;2023-07-16T12:49:06;1.85;;;1.45;;
25419;SDS011;13354;48.174;11.566;2023-07-16T12:51:32;1.92;;;1.40;;
25419;SDS011;13354;48.174;11.566;2023-07-16T12:53:57;1.87;;;1.63;;
25419;SDS011;13354;48.174;11.566;2023-07-16T12:56:22;2.90;;;1.83;;
25419;SDS011;13354;48.174;11.566;2023-07-16T12:58:48;2.53;;;1.83;;
25419;SDS011;13354;48.174;11.566;2023-07-16T13:01:14;1.85;;;1.60;;
25419;SDS011;13354;48.174;11.566;2023-07-16T13:03:39;3.75;;;2.08;;
25419;SDS011;13354;48.174;11.566;2023-07-16T13:06:05;3.40;;;2.35;;
25419;SDS011;13354;48.174;11.566;2023-07-16T13:08:30;2.17;;;1.83;;
25419;SDS011;13354;48.174;11.566;2023-07-16T13:10:56;3.22;;;1.85;;
25419;SDS011;13354;48.174;11.566;2023-07-16T13:13:22;1.92;;;1.70;;
25419;SDS011;13354;48.174;11.566;2023-07-16T13:15:47;1.98;;;1.75;;
25419;SDS011;13354;48.174;11.566;2023-07-16T13:18:12;3.80;;;1.80;;
25419;SDS011;13354;48.174;11.566;2023-07-16T13:20:38;2.72;;;1.60;;
25419;SDS011;13354;48.174;11.566;2023-07-16T13:23:04;1.85;;;1.60;;
25419;SDS011;13354;48.174;11.566;2023-07-16T13:25:29;1.90;;;1.70;;
25419;SDS011;13354;48.174;11.566;2023-07-16T13:27:55;2.95;;;2.30;;
25419;SDS011;13354;48.174;11.566;2023-07-16T13:30:21;6.13;;;1.92;;
25419;SDS011;13354;48.174;11.566;2023-07-16T13:32:46;2.65;;;1.90;;
25419;SDS011;13354;48.174;11.566;2023-07-16T13:35:13;3.67;;;2.20;;
25419;SDS011;13354;48.174;11.566;2023-07-16T13:37:39;4.70;;;1.75;;
25419;SDS011;13354;48.174;11.566;2023-07-16T13:40:05;2.45;;;1.70;;
25419;SDS011;13354;48.174;11.566;2023-07-16T13:42:30;4.95;;;1.98;;
25419;SDS011;13354;48.174;11.566;2023-07-16T13:44:56;2.90;;;1.90;;
25419;SDS011;13354;48.174;11.566;2023-07-16T13:47:21;1.92;;;1.70;;
25419;SDS011;13354;48.174;11.566;2023-07-16T13:49:47;3.22;;;1.80;;
25419;SDS011;13354;48.174;11.566;2023-07-16T13:52:12;2.17;;;1.83;;
25419;SDS011;13354;48.174;11.566;2023-07-16T13:54:37;2.20;;;1.80;;
25419;SDS011;13354;48.174;11.566;2023-07-16T13:57:03;4.15;;;1.83;;
25419;SDS011;13354;48.174;11.566;2023-07-16T13:59:28;2.22;;;2.00;;
25419;SDS011;13354;48.174;11.566;2023-07-16T14:02:00;3.40;;;1.70;;
25419;SDS011;13354;48.174;11.566;2023-07-16T14:04:27;2.47;;;1.58;;
25419;SDS011;13354;48.174;11.566;2023-07-16T14:06:53;3.92;;;1.75;;
25419;SDS011;13354;48.174;11.566;2023-07-16T14:09:18;2.08;;;1.88;;
25419;SDS011;13354;48.174;11.566;2023-07-16T14:11:44;1.90;;;1.80;;
25419;SDS011;13354;48.174;11.566;2023-07-16T14:14:12;2.97;;;2.15;;
25419;SDS011;13354;48.174;11.566;2023-07-16T14:16:38;2.33;;;1.83;;
25419;SDS011;13354;48.174;11.566;2023-07-16T14:19:03;3.33;;;2.00;;
25419;SDS011;13354;48.174;11.566;2023-07-16T14:21:29;3.10;;;2.60;;
25419;SDS011;13354;48.174;11.566;2023-07-16T14:23:55;4.00;;;2.30;;
25419;SDS011;13354;48.174;11.566;2023-07-16T14:26:20;2.35;;;2.00;;
25419;SDS011;13354;48.174;11.566;2023-07-16T14:28:46;2.88;;;1.95;;
25419;SDS011;13354;48.174;11.566;2023-07-16T14:31:11;4.18;;;2.53;;
25419;SDS011;13354;48.174;11.566;2023-07-16T14:33:37;2.67;;;2.00;;
25419;SDS011;13354;48.174;11.566;2023-07-16T14:36:03;3.38;;;1.90;;